Time;durP1;ratioP1;P1;durP2;ratioP2;P2;SDS_P1;SDS_P2;PMS_P1;PMS_P2;Temp;Humidity;BMP_temperature;BMP_pressure;BME280_temperature;BME280_humidity;BME280_pressure;Samples;Min_cycle;Max_cycle;Signal;HPM_P1;HPM_P2
2023/07/03 00:01:46;;;;;;;11.40;3.28;;;15.90;99.90;;;;;;4204173;28;20050;-87
2023/07/03 00:03:51;;;;;;;14.93;2.78;;;16.00;99.90;;;;;;4203172;28;20048;-86
2023/07/03 00:05:52;;;;;;;15.95;3.92;;;16.00;99.90;;;;;;4203438;28;20059;-87
2023/07/03 00:07:53;;;;;;;10.90;2.33;;;15.90;99.90;;;;;;4203748;28;20040;-87
2023/07/03 00:09:54;;;;;;;8.88;2.53;;;15.90;99.90;;;;;;4203788;28;20053;-87
2023/07/03 00:11:55;;;;;;;16.70;3.22;;;16.00;99.90;;;;;;4205416;28;20411;-86
2023/07/03 00:13:56;;;;;;;8.02;2.72;;;16.00;99.90;;;;;;4203242;28;20063;-86
2023/07/03 00:16:01;;;;;;;13.88;2.88;;;16.00;99.90;;;;;;4195059;28;20048;-85
2023/07/03 00:18:01;;;;;;;14.95;3.28;;;16.00;99.90;;;;;;4213975;28;20111;-85
2023/07/03 00:20:13;;;;;;;9.80;2.38;;;15.90;99.90;;;;;;4201027;28;20055;-85
2023/07/03 00:22:14;;;;;;;9.85;2.50;;;16.00;99.90;;;;;;4205534;28;20404;-86
2023/07/03 00:24:15;;;;;;;11.18;2.63;;;16.00;99.90;;;;;;4200164;28;20040;-86
2023/07/03 00:26:17;;;;;;;9.30;2.85;;;16.00;99.90;;;;;;4200071;28;20067;-86
2023/07/03 00:28:18;;;;;;;13.70;2.85;;;16.00;99.90;;;;;;4230381;28;20075;-86
2023/07/03 00:30:19;;;;;;;10.35;2.40;;;15.90;99.90;;;;;;4218793;28;20134;-86
2023/07/03 00:32:20;;;;;;;11.40;2.72;;;15.90;99.90;;;;;;4218429;28;20079;-86
2023/07/03 00:34:21;;;;;;;9.90;3.45;;;15.90;99.90;;;;;;4217886;28;20044;-86
2023/07/03 00:36:22;;;;;;;11.07;2.95;;;15.90;99.90;;;;;;4218362;28;20124;-87
2023/07/03 00:38:23;;;;;;;12.73;3.55;;;15.90;99.90;;;;;;4199413;28;20528;-86
2023/07/03 00:40:23;;;;;;;9.73;2.40;;;15.90;99.90;;;;;;4217049;28;20044;-86
2023/07/03 00:42:27;;;;;;;10.27;2.55;;;15.90;99.90;;;;;;4219109;28;20036;-86
2023/07/03 00:44:28;;;;;;;10.05;2.63;;;15.90;99.90;;;;;;4218954;28;20484;-86
2023/07/03 00:46:29;;;;;;;11.02;3.20;;;15.90;99.90;;;;;;4218801;28;20051;-86
2023/07/03 00:48:31;;;;;;;10.82;2.42;;;15.90;99.90;;;;;;4219177;28;20048;-86
2023/07/03 00:50:34;;;;;;;18.70;3.90;;;15.90;99.90;;;;;;4218274;28;20089;-86
2023/07/03 00:52:37;;;;;;;9.65;2.17;;;15.90;99.90;;;;;;4201739;28;20040;-86
2023/07/03 00:54:39;;;;;;;10.75;2.50;;;15.90;99.90;;;;;;4216925;28;20115;-86
2023/07/03 00:56:43;;;;;;;11.40;3.40;;;15.90;99.90;;;;;;4219527;28;20257;-85
2023/07/03 00:58:45;;;;;;;12.80;2.70;;;15.90;99.90;;;;;;4200586;28;20159;-86
2023/07/03 01:00:58;;;;;;;9.27;2.05;;;15.90;99.90;;;;;;4234480;28;20043;-85
2023/07/03 01:03:20;;;;;;;10.15;2.65;;;15.90;99.90;;;;;;4219599;28;20047;-87
2023/07/03 01:05:28;;;;;;;11.05;2.78;;;15.90;99.90;;;;;;4211428;28;20127;-87
2023/07/03 01:07:31;;;;;;;13.75;2.63;;;15.90;99.90;;;;;;4218123;28;20131;-87
2023/07/03 01:09:44;;;;;;;8.30;2.50;;;15.90;99.90;;;;;;4218049;28;20040;-87
2023/07/03 01:11:48;;;;;;;13.23;2.22;;;15.90;99.90;;;;;;4216624;28;20100;-87
2023/07/03 01:13:53;;;;;;;7.68;2.42;;;15.90;99.90;;;;;;4233118;28;20423;-87
2023/07/03 01:15:56;;;;;;;8.55;3.08;;;15.90;99.90;;;;;;4217555;28;20063;-87
2023/07/03 01:18:00;;;;;;;9.95;2.92;;;15.80;99.90;;;;;;4217219;28;20223;-85
2023/07/03 01:20:04;;;;;;;9.32;2.53;;;15.80;99.90;;;;;;4216361;28;20454;-86
2023/07/03 01:22:23;;;;;;;11.80;2.45;;;15.80;99.90;;;;;;4199494;28;20040;-87
2023/07/03 01:24:34;;;;;;;9.15;2.20;;;15.80;99.90;;;;;;4232767;28;20435;-86
2023/07/03 01:26:37;;;;;;;9.30;2.53;;;15.80;99.90;;;;;;4232736;28;20126;-86
2023/07/03 01:28:40;;;;;;;11.40;4.10;;;15.80;99.90;;;;;;4232670;28;20056;-85
2023/07/03 01:30:43;;;;;;;13.07;3.03;;;15.80;99.90;;;;;;4199503;28;20110;-85
2023/07/03 01:32:49;;;;;;;13.10;2.35;;;15.80;99.90;;;;;;4236528;28;20097;-86
2023/07/03 01:34:53;;;;;;;7.63;1.80;;;15.80;99.90;;;;;;4204869;28;20056;-86
2023/07/03 01:37:00;;;;;;;11.85;3.20;;;15.80;99.90;;;;;;4200442;28;20052;-87
2023/07/03 01:39:02;;;;;;;8.95;2.20;;;15.80;99.90;;;;;;4201108;28;20052;-86
2023/07/03 01:41:02;;;;;;;8.38;2.55;;;15.80;99.90;;;;;;4200649;28;20525;-86
2023/07/03 01:43:04;;;;;;;9.25;2.10;;;15.80;99.90;;;;;;4200033;28;20056;-87
2023/07/03 01:45:06;;;;;;;11.70;2.28;;;15.90;99.90;;;;;;4200253;28;20086;-87
2023/07/03 01:47:11;;;;;;;9.40;2.20;;;15.90;99.90;;;;;;4199133;28;20049;-86
2023/07/03 01:49:14;;;;;;;13.45;2.50;;;15.90;99.90;;;;;;4199452;28;20055;-86
2023/07/03 01:51:25;;;;;;;15.32;2.75;;;15.80;99.90;;;;;;4198749;28;20098;-86
2023/07/03 01:53:43;;;;;;;7.38;1.77;;;15.80;99.90;;;;;;4201375;28;20052;-87
2023/07/03 01:56:15;;;;;;;9.40;2.92;;;15.80;99.90;;;;;;4200957;28;20060;-86
2023/07/03 01:58:55;;;;;;;8.02;2.35;;;15.90;99.90;;;;;;4215964;28;20040;-87
2023/07/03 02:01:03;;;;;;;11.88;2.55;;;15.90;99.90;;;;;;4169578;28;20041;-86
2023/07/03 02:03:20;;;;;;;7.18;2.20;;;15.50;99.90;;;;;;4199473;28;20052;-88
2023/07/03 02:05:26;;;;;;;8.70;2.13;;;15.80;99.90;;;;;;4216352;28;20052;-87
2023/07/03 02:07:29;;;;;;;10.65;2.30;;;14.90;99.90;;;;;;4202432;28;20098;-87
2023/07/03 02:09:31;;;;;;;11.23;1.95;;;15.70;99.90;;;;;;4216003;28;20052;-87
2023/07/03 02:11:32;;;;;;;8.93;1.80;;;15.70;99.90;;;;;;4200563;28;20037;-87
2023/07/03 02:13:33;;;;;;;8.32;2.40;;;15.70;99.90;;;;;;4199418;28;20045;-86
2023/07/03 02:15:35;;;;;;;12.05;2.10;;;15.60;99.90;;;;;;4205153;28;20473;-87
2023/07/03 02:17:36;;;;;;;10.48;3.80;;;15.60;99.90;;;;;;4215498;28;20083;-86
2023/07/03 02:19:37;;;;;;;11.70;2.55;;;15.30;99.90;;;;;;4218147;28;20173;-87
2023/07/03 02:21:39;;;;;;;9.98;2.40;;;15.50;99.90;;;;;;4216428;28;20048;-86
2023/07/03 02:23:41;;;;;;;10.88;2.08;;;15.50;99.90;;;;;;4198668;28;20040;-86
2023/07/03 02:25:43;;;;;;;10.15;2.35;;;15.40;99.90;;;;;;4217487;28;20094;-86
2023/07/03 02:27:45;;;;;;;11.70;2.35;;;15.40;99.90;;;;;;4216528;28;20121;-86
2023/07/03 02:29:47;;;;;;;10.40;1.83;;;15.30;99.90;;;;;;4233741;28;20126;-87
2023/07/03 02:31:53;;;;;;;9.05;2.50;;;15.30;99.90;;;;;;4216296;28;20095;-86
2023/07/03 02:33:54;;;;;;;13.77;2.15;;;15.20;99.90;;;;;;4217114;28;20047;-87
2023/07/03 02:35:56;;;;;;;11.07;1.77;;;15.20;99.90;;;;;;4218356;28;20032;-87
2023/07/03 02:37:56;;;;;;;8.52;2.63;;;15.20;99.90;;;;;;4232547;28;20059;-85
2023/07/03 02:39:57;;;;;;;6.45;1.30;;;15.20;99.90;;;;;;4217121;28;20044;-85
2023/07/03 02:41:59;;;;;;;10.45;2.08;;;15.20;99.90;;;;;;4216575;28;20044;-86
2023/07/03 02:44:01;;;;;;;7.85;1.75;;;15.20;99.90;;;;;;4220385;28;20051;-87
2023/07/03 02:46:07;;;;;;;5.22;1.55;;;15.10;99.90;;;;;;4219102;28;20044;-86
2023/07/03 02:48:10;;;;;;;7.28;1.73;;;14.80;99.90;;;;;;4241830;27;20049;-87
2023/07/03 02:50:11;;;;;;;7.35;1.38;;;15.10;99.90;;;;;;4236975;28;20079;-85
2023/07/03 02:52:12;;;;;;;9.82;1.70;;;15.10;99.90;;;;;;4236966;28;20089;-86
2023/07/03 02:54:13;;;;;;;7.10;1.58;;;15.00;99.90;;;;;;4236934;28;20047;-86
2023/07/03 02:56:15;;;;;;;5.55;1.40;;;15.00;99.90;;;;;;4236500;28;20069;-87
2023/07/03 02:58:17;;;;;;;8.23;2.35;;;15.00;99.90;;;;;;4253522;27;20122;-87
2023/07/03 03:00:20;;;;;;;7.38;1.52;;;14.90;99.90;;;;;;4236897;28;20039;-87
2023/07/03 03:02:21;;;;;;;8.70;1.77;;;14.90;99.90;;;;;;4205432;28;20045;-87
2023/07/03 03:04:22;;;;;;;5.82;1.83;;;14.90;99.90;;;;;;4228185;27;20086;-87
2023/07/03 03:06:22;;;;;;;14.65;1.88;;;14.80;99.90;;;;;;4219928;28;20062;-87
2023/07/03 03:08:24;;;;;;;11.70;1.75;;;14.80;99.90;;;;;;4236177;28;20082;-87
2023/07/03 03:10:25;;;;;;;8.77;1.85;;;14.80;99.90;;;;;;4201262;28;20078;-87
2023/07/03 03:12:26;;;;;;;14.77;1.98;;;14.70;99.90;;;;;;4202378;28;20496;-87
2023/07/03 03:14:27;;;;;;;9.63;1.63;;;14.70;99.90;;;;;;4219626;28;20140;-86
2023/07/03 03:16:28;;;;;;;6.43;1.27;;;14.70;99.90;;;;;;4220866;28;20048;-86
2023/07/03 03:18:29;;;;;;;9.43;1.73;;;14.50;99.90;;;;;;4236037;28;20418;-86
2023/07/03 03:20:30;;;;;;;7.90;2.13;;;14.70;99.90;;;;;;4201586;28;20127;-86
2023/07/03 03:22:34;;;;;;;9.20;2.10;;;14.70;99.90;;;;;;4220373;28;20044;-86
2023/07/03 03:24:43;;;;;;;8.80;1.98;;;14.70;99.90;;;;;;4235400;28;20166;-87
2023/07/03 03:26:45;;;;;;;5.63;1.40;;;14.40;99.90;;;;;;4202313;28;20053;-86
2023/07/03 03:28:46;;;;;;;9.60;1.48;;;14.60;99.90;;;;;;4227271;28;20094;-85
2023/07/03 03:30:52;;;;;;;8.82;1.80;;;14.70;99.90;;;;;;4221695;28;20044;-86
2023/07/03 03:32:54;;;;;;;12.40;1.90;;;14.60;99.90;;;;;;4220577;28;20048;-86
2023/07/03 03:34:57;;;;;;;12.27;1.45;;;14.60;99.90;;;;;;4235043;28;20082;-85
2023/07/03 03:36:58;;;;;;;7.18;1.60;;;14.60;99.90;;;;;;4220358;28;20044;-85
2023/07/03 03:38:59;;;;;;;10.00;1.70;;;14.60;99.90;;;;;;4219852;28;20093;-85
2023/07/03 03:41:04;;;;;;;12.13;1.40;;;14.60;99.90;;;;;;4219342;28;20126;-86
2023/07/03 03:43:05;;;;;;;6.75;1.45;;;14.60;99.90;;;;;;4233042;28;20058;-86
2023/07/03 03:45:07;;;;;;;4.18;1.08;;;14.60;99.90;;;;;;4218792;28;20052;-86
2023/07/03 03:47:09;;;;;;;8.25;1.50;;;14.60;99.90;;;;;;4212646;28;20071;-85
2023/07/03 03:49:17;;;;;;;6.65;1.45;;;14.50;99.90;;;;;;4200802;28;20053;-86
2023/07/03 03:51:18;;;;;;;6.65;1.60;;;14.60;99.90;;;;;;4185585;28;20503;-87
2023/07/03 03:53:22;;;;;;;7.80;1.27;;;14.50;99.90;;;;;;4206733;28;20051;-86
2023/07/03 03:55:23;;;;;;;7.38;1.30;;;14.60;99.90;;;;;;4201447;28;20057;-85
2023/07/03 03:57:23;;;;;;;7.95;1.40;;;14.60;99.90;;;;;;4214030;28;20199;-85
2023/07/03 03:59:24;;;;;;;11.18;1.75;;;14.60;99.90;;;;;;4201107;28;20055;-86
2023/07/03 04:01:25;;;;;;;7.35;1.45;;;13.90;99.90;;;;;;4219029;28;20132;-85
2023/07/03 04:03:27;;;;;;;11.50;1.77;;;14.60;99.90;;;;;;4219146;28;20101;-85
2023/07/03 04:05:28;;;;;;;8.25;1.23;;;14.60;99.90;;;;;;4219505;28;20047;-85
2023/07/03 04:07:29;;;;;;;16.65;1.80;;;14.60;99.90;;;;;;4218402;28;20048;-85
2023/07/03 04:09:30;;;;;;;8.63;1.40;;;14.60;99.90;;;;;;4200079;28;20428;-86
2023/07/03 04:11:30;;;;;;;6.00;1.80;;;14.60;99.90;;;;;;4219059;28;20071;-85
2023/07/03 04:13:31;;;;;;;9.82;1.70;;;14.60;99.90;;;;;;4218920;28;20089;-86
2023/07/03 04:15:35;;;;;;;8.57;1.30;;;14.60;99.90;;;;;;4219467;28;20446;-85
2023/07/03 04:17:37;;;;;;;11.15;2.30;;;14.60;99.90;;;;;;4217365;28;20712;-85
2023/07/03 04:19:38;;;;;;;6.03;1.42;;;14.60;99.90;;;;;;4218795;28;20122;-87
2023/07/03 04:21:40;;;;;;;8.10;1.63;;;14.60;99.90;;;;;;4219013;28;20078;-84
2023/07/03 04:23:42;;;;;;;10.13;1.60;;;14.70;99.90;;;;;;4217468;28;20055;-86
2023/07/03 04:25:43;;;;;;;9.00;1.65;;;14.60;99.90;;;;;;4218851;28;20524;-87
2023/07/03 04:27:43;;;;;;;10.13;2.10;;;14.70;99.90;;;;;;4218866;28;20476;-85
2023/07/03 04:29:44;;;;;;;10.70;2.35;;;14.70;99.90;;;;;;4218214;28;20126;-85
2023/07/03 04:31:45;;;;;;;9.63;2.00;;;14.60;99.90;;;;;;4216239;28;20056;-86
2023/07/03 04:33:46;;;;;;;10.63;1.80;;;14.70;99.90;;;;;;4217034;28;20299;-86
2023/07/03 04:35:47;;;;;;;10.68;2.42;;;14.70;99.90;;;;;;4216258;28;20055;-85
2023/07/03 04:37:51;;;;;;;7.40;1.17;;;14.70;99.90;;;;;;4214915;28;20041;-85
2023/07/03 04:39:54;;;;;;;12.10;1.50;;;14.80;99.90;;;;;;4200606;28;20127;-85
2023/07/03 04:41:56;;;;;;;14.35;2.15;;;14.80;99.90;;;;;;4210421;28;20040;-86
2023/07/03 04:44:00;;;;;;;9.40;1.55;;;14.90;99.90;;;;;;4237366;28;20059;-86
2023/07/03 04:46:03;;;;;;;7.43;1.45;;;14.80;99.90;;;;;;4217747;28;20161;-86
2023/07/03 04:48:04;;;;;;;9.60;1.92;;;14.90;99.90;;;;;;4233488;28;20048;-84
2023/07/03 04:50:15;;;;;;;7.55;1.30;;;14.90;99.90;;;;;;4216830;28;20114;-85
2023/07/03 04:52:16;;;;;;;6.20;1.35;;;14.80;99.90;;;;;;4198887;28;20041;-85
2023/07/03 04:54:17;;;;;;;10.13;1.42;;;14.80;99.90;;;;;;4219608;28;20044;-86
2023/07/03 04:56:18;;;;;;;10.15;1.48;;;14.70;99.90;;;;;;4217350;28;20071;-85
2023/07/03 04:58:19;;;;;;;11.75;2.47;;;14.60;99.90;;;;;;4215392;28;20044;-85
2023/07/03 05:00:21;;;;;;;9.77;1.67;;;14.80;99.90;;;;;;4214136;28;20388;-85
2023/07/03 05:02:22;;;;;;;20.92;2.75;;;14.80;99.90;;;;;;4216646;28;20055;-85
2023/07/03 05:04:23;;;;;;;6.63;1.02;;;14.80;99.90;;;;;;4216623;28;20067;-87
2023/07/03 05:06:24;;;;;;;8.05;1.25;;;14.90;99.90;;;;;;4214146;28;20040;-85
2023/07/03 05:08:25;;;;;;;8.32;1.38;;;14.90;99.90;;;;;;4218488;28;20935;-85
2023/07/03 05:10:27;;;;;;;9.25;1.00;;;15.00;99.90;;;;;;4199564;28;20460;-83
2023/07/03 05:12:28;;;;;;;8.07;1.20;;;15.00;99.90;;;;;;4217948;28;20040;-85
2023/07/03 05:14:29;;;;;;;5.78;1.65;;;15.00;99.90;;;;;;4198599;28;20048;-85
2023/07/03 05:16:29;;;;;;;7.38;1.80;;;15.10;99.90;;;;;;4200051;28;20053;-84
2023/07/03 05:18:30;;;;;;;4.18;1.65;;;15.10;99.90;;;;;;4200044;28;20489;-84
2023/07/03 05:20:31;;;;;;;6.43;1.63;;;15.20;99.90;;;;;;4234065;28;20075;-85
2023/07/03 05:22:32;;;;;;;8.90;1.33;;;15.30;99.90;;;;;;4214997;28;20037;-85
2023/07/03 05:24:34;;;;;;;8.02;1.63;;;15.40;99.90;;;;;;4200063;28;20110;-85
2023/07/03 05:26:34;;;;;;;8.75;1.48;;;15.50;99.90;;;;;;4204927;28;20040;-85
2023/07/03 05:28:36;;;;;;;8.15;1.83;;;15.60;99.90;;;;;;4217011;28;20096;-86
2023/07/03 05:30:37;;;;;;;12.80;1.88;;;15.70;99.90;;;;;;4217668;28;20056;-85
2023/07/03 05:32:40;;;;;;;5.72;1.10;;;15.80;99.90;;;;;;4217223;28;20036;-86
2023/07/03 05:34:41;;;;;;;16.55;1.92;;;15.80;99.90;;;;;;4216995;28;20559;-85
2023/07/03 05:36:42;;;;;;;6.72;1.27;;;15.80;99.90;;;;;;4216893;28;20044;-84
2023/07/03 05:38:43;;;;;;;8.13;1.90;;;15.80;99.90;;;;;;4216415;28;20074;-85
2023/07/03 05:40:44;;;;;;;6.57;1.10;;;16.00;99.90;;;;;;4199110;28;20503;-85
2023/07/03 05:42:46;;;;;;;12.80;1.60;;;16.10;99.90;;;;;;4216528;28;20052;-85
2023/07/03 05:44:47;;;;;;;9.38;1.73;;;16.00;99.90;;;;;;4216512;28;20072;-85
2023/07/03 05:46:49;;;;;;;6.43;1.25;;;16.10;99.90;;;;;;4215594;28;20040;-85
2023/07/03 05:48:50;;;;;;;10.73;1.50;;;16.10;99.90;;;;;;4217560;28;20087;-85
2023/07/03 05:50:51;;;;;;;13.45;1.30;;;16.00;99.90;;;;;;4216842;28;20492;-86
2023/07/03 05:52:51;;;;;;;6.85;1.55;;;16.00;99.90;;;;;;4215570;28;20047;-84
2023/07/03 05:54:52;;;;;;;5.90;1.08;;;16.00;99.90;;;;;;4216645;28;20396;-84
2023/07/03 05:57:01;;;;;;;5.38;1.13;;;16.00;99.90;;;;;;4231353;28;20047;-84
2023/07/03 05:59:03;;;;;;;;;;;15.90;99.90;;;;;;4216426;28;20040;-84
2023/07/03 06:01:03;;;;;;;5.07;1.35;;;15.90;99.90;;;;;;4215485;28;20299;-85
2023/07/03 06:03:04;;;;;;;7.75;1.23;;;15.80;99.90;;;;;;4199762;28;20079;-85
2023/07/03 06:05:05;;;;;;;10.48;1.55;;;15.80;99.90;;;;;;4217043;28;20070;-85
2023/07/03 06:07:08;;;;;;;9.98;1.83;;;15.80;99.90;;;;;;4198431;28;20127;-84
2023/07/03 06:09:08;;;;;;;6.13;1.45;;;15.90;99.90;;;;;;4232932;28;20503;-84
2023/07/03 06:11:09;;;;;;;10.20;1.75;;;15.90;99.90;;;;;;4216519;28;20048;-87
2023/07/03 06:13:13;;;;;;;12.75;1.98;;;15.90;99.90;;;;;;4218330;28;20039;-85
2023/07/03 06:15:14;;;;;;;6.93;1.20;;;16.00;99.90;;;;;;4216677;28;20047;-84
2023/07/03 06:17:15;;;;;;;13.50;1.95;;;16.10;99.90;;;;;;4217799;28;20044;-85
2023/07/03 06:19:17;;;;;;;9.57;1.98;;;16.20;99.90;;;;;;4217839;28;20040;-85
2023/07/03 06:21:18;;;;;;;10.02;1.50;;;16.30;99.90;;;;;;4232338;28;20049;-84
2023/07/03 06:23:19;;;;;;;8.70;2.10;;;16.30;99.90;;;;;;4216844;28;20171;-85
2023/07/03 06:25:19;;;;;;;11.23;1.63;;;16.30;99.90;;;;;;4199755;28;20063;-85
2023/07/03 06:27:20;;;;;;;9.98;1.42;;;16.40;99.90;;;;;;4218278;28;20054;-85
2023/07/03 06:29:21;;;;;;;9.18;1.30;;;16.50;99.90;;;;;;4216442;28;20058;-85
2023/07/03 06:31:22;;;;;;;8.95;1.88;;;16.60;99.90;;;;;;4233628;28;20054;-84
2023/07/03 06:33:23;;;;;;;5.57;1.25;;;16.70;99.90;;;;;;4200103;28;20056;-84
2023/07/03 06:35:24;;;;;;;11.20;1.80;;;16.80;99.90;;;;;;4216388;28;20138;-85
2023/07/03 06:37:25;;;;;;;4.70;1.20;;;16.60;99.90;;;;;;4216517;28;20048;-85
2023/07/03 06:39:26;;;;;;;5.68;0.93;;;16.90;99.90;;;;;;4218086;28;20484;-81
2023/07/03 06:41:30;;;;;;;12.95;2.90;;;17.00;99.90;;;;;;4228020;28;20044;-82
2023/07/03 06:43:32;;;;;;;7.97;1.13;;;17.00;99.90;;;;;;4230799;28;20092;-81
2023/07/03 06:45:38;;;;;;;7.68;1.20;;;17.00;99.90;;;;;;4233192;28;20039;-82
2023/07/03 06:47:39;;;;;;;9.32;1.30;;;17.10;99.90;;;;;;4219681;28;20044;-83
2023/07/03 06:49:40;;;;;;;8.02;1.52;;;17.00;99.90;;;;;;4217058;28;20039;-83
2023/07/03 06:51:41;;;;;;;9.50;1.30;;;17.00;99.90;;;;;;4216891;28;20048;-83
2023/07/03 06:53:42;;;;;;;5.50;1.08;;;16.80;99.90;;;;;;4215955;28;20048;-83
2023/07/03 06:55:42;;;;;;;7.32;1.67;;;16.70;99.90;;;;;;4217826;28;20050;-83
2023/07/03 06:57:43;;;;;;;6.75;1.73;;;16.50;99.90;;;;;;4215367;28;20044;-82
2023/07/03 06:59:44;;;;;;;11.57;2.70;;;16.40;99.90;;;;;;4217370;28;20113;-83
2023/07/03 07:01:46;;;;;;;5.28;1.15;;;16.30;99.90;;;;;;4216526;28;20420;-82
2023/07/03 07:03:46;;;;;;;8.88;1.83;;;16.10;99.90;;;;;;4218735;28;20522;-83
2023/07/03 07:05:47;;;;;;;6.28;1.20;;;16.00;99.90;;;;;;4218603;28;20048;-83
2023/07/03 07:07:48;;;;;;;3.67;1.13;;;15.90;99.90;;;;;;4218735;28;20040;-83
2023/07/03 07:09:49;;;;;;;14.20;2.60;;;15.80;99.90;;;;;;4219367;28;20051;-83
2023/07/03 07:11:49;;;;;;;10.95;2.47;;;15.70;99.90;;;;;;4219030;28;20048;-83
2023/07/03 07:13:51;;;;;;;8.73;1.40;;;15.60;99.90;;;;;;4214264;28;20048;-82
2023/07/03 07:15:52;;;;;;;8.93;1.52;;;15.60;99.90;;;;;;4216925;28;20046;-84
2023/07/03 07:17:55;;;;;;;5.15;1.08;;;15.70;99.90;;;;;;4229725;28;20051;-84
2023/07/03 07:19:56;;;;;;;6.75;1.73;;;15.70;99.90;;;;;;4230799;28;20016;-84
2023/07/03 07:22:06;;;;;;;7.20;1.77;;;15.80;99.90;;;;;;4223853;28;20052;-85
2023/07/03 07:24:20;;;;;;;5.15;1.10;;;15.80;99.90;;;;;;4222767;28;20048;-85
2023/07/03 07:26:27;;;;;;;6.93;1.67;;;15.90;99.90;;;;;;4239726;28;20050;-84
2023/07/03 07:28:32;;;;;;;4.20;1.10;;;16.30;99.90;;;;;;4227128;28;20044;-84
2023/07/03 07:30:37;;;;;;;7.63;1.65;;;16.60;99.90;;;;;;4228074;28;20071;-85
2023/07/03 07:32:38;;;;;;;5.15;1.08;;;16.90;99.90;;;;;;4226432;28;20065;-83
2023/07/03 07:34:41;;;;;;;4.97;0.93;;;17.00;99.90;;;;;;4226428;28;20040;-84
2023/07/03 07:36:43;;;;;;;3.58;1.00;;;16.90;99.90;;;;;;4217031;28;20040;-83
2023/07/03 07:38:44;;;;;;;5.70;1.00;;;16.90;99.90;;;;;;4208689;28;20025;-84
2023/07/03 07:40:45;;;;;;;7.75;1.45;;;16.90;99.90;;;;;;4207839;28;20044;-84
2023/07/03 07:42:46;;;;;;;5.35;1.55;;;16.90;99.90;;;;;;4209692;28;20048;-84
2023/07/03 07:44:50;;;;;;;8.95;1.00;;;17.00;99.90;;;;;;4213450;28;20056;-84
2023/07/03 07:46:58;;;;;;;5.43;1.00;;;16.90;99.90;;;;;;4226710;28;20108;-83
2023/07/03 07:49:01;;;;;;;3.47;1.00;;;16.80;99.90;;;;;;4214309;28;20040;-84
2023/07/03 07:51:07;;;;;;;8.23;1.33;;;16.90;99.90;;;;;;4213313;28;20037;-85
2023/07/03 07:53:08;;;;;;;5.03;1.20;;;17.00;99.90;;;;;;4211342;28;20467;-84
2023/07/03 07:55:09;;;;;;;5.72;1.55;;;17.00;99.90;;;;;;4215703;28;20052;-83
2023/07/03 07:57:10;;;;;;;7.85;0.95;;;17.10;99.90;;;;;;4213632;28;20155;-84
2023/07/03 07:59:13;;;;;;;4.25;1.00;;;17.10;99.90;;;;;;4215407;28;20713;-84
2023/07/03 08:01:14;;;;;;;5.10;0.93;;;17.20;99.90;;;;;;4214788;28;20123;-85
2023/07/03 08:03:17;;;;;;;5.53;0.70;;;17.20;99.90;;;;;;4213000;28;20053;-84
2023/07/03 08:05:21;;;;;;;3.50;1.27;;;17.20;99.90;;;;;;4230300;28;20080;-85
2023/07/03 08:07:22;;;;;;;8.27;1.38;;;17.50;99.90;;;;;;4224681;28;20093;-85
2023/07/03 08:09:29;;;;;;;6.15;1.10;;;17.60;99.90;;;;;;4219318;28;20438;-84
2023/07/03 08:11:30;;;;;;;5.07;1.25;;;17.60;99.90;;;;;;4217892;28;20040;-84
2023/07/03 08:13:32;;;;;;;4.55;0.82;;;17.70;99.90;;;;;;4220320;28;20040;-84
2023/07/03 08:15:32;;;;;;;10.05;1.95;;;17.80;99.90;;;;;;4218843;28;20036;-85
2023/07/03 08:17:33;;;;;;;6.05;1.02;;;18.00;99.90;;;;;;4218500;28;20090;-85
2023/07/03 08:19:34;;;;;;;1.85;0.77;;;18.30;99.90;;;;;;4217916;28;20096;-84
2023/07/03 08:21:35;;;;;;;9.07;1.58;;;18.50;99.90;;;;;;4218387;28;20489;-85
2023/07/03 08:23:36;;;;;;;8.23;1.25;;;18.70;99.90;;;;;;4218959;28;20087;-83
2023/07/03 08:25:37;;;;;;;7.18;1.17;;;18.60;99.90;;;;;;4223598;28;20048;-83
2023/07/03 08:27:47;;;;;;;4.28;1.38;;;17.90;99.90;;;;;;4224203;28;20048;-85
2023/07/03 08:29:47;;;;;;;7.70;0.88;;;18.50;99.90;;;;;;4221686;28;20110;-83
2023/07/03 08:31:48;;;;;;;6.13;0.82;;;18.30;99.90;;;;;;4218669;28;20048;-84
2023/07/03 08:33:51;;;;;;;4.30;0.98;;;18.20;99.90;;;;;;4220389;28;20024;-84
2023/07/03 08:35:53;;;;;;;12.73;1.52;;;18.20;99.90;;;;;;4220077;28;20040;-83
2023/07/03 08:37:54;;;;;;;4.18;0.63;;;18.30;99.90;;;;;;4236080;28;20035;-85
2023/07/03 08:39:55;;;;;;;7.10;1.27;;;18.50;99.90;;;;;;4217742;28;20097;-84
2023/07/03 08:42:04;;;;;;;5.05;1.23;;;18.70;99.90;;;;;;4218709;28;20438;-85
2023/07/03 08:44:05;;;;;;;6.82;1.10;;;19.10;99.90;;;;;;4217932;28;20592;-85
2023/07/03 08:46:21;;;;;;;7.45;1.20;;;19.30;99.90;;;;;;4218977;28;20131;-84
2023/07/03 08:48:25;;;;;;;11.43;1.35;;;19.50;99.90;;;;;;4219118;28;20070;-84
2023/07/03 08:50:27;;;;;;;3.05;0.70;;;19.50;99.90;;;;;;4217947;28;20040;-85
2023/07/03 08:52:41;;;;;;;5.05;0.73;;;19.60;99.90;;;;;;4218057;28;20046;-85
2023/07/03 08:54:42;;;;;;;8.13;1.58;;;19.40;99.90;;;;;;4219408;28;20382;-83
2023/07/03 08:56:43;;;;;;;8.90;1.88;;;19.30;99.90;;;;;;4218447;28;20048;-84
2023/07/03 08:58:51;;;;;;;5.07;0.60;;;19.30;99.90;;;;;;4218603;28;20477;-83
2023/07/03 09:00:51;;;;;;;2.90;0.75;;;19.30;99.90;;;;;;4218492;28;20473;-83
2023/07/03 09:03:05;;;;;;;7.20;1.98;;;19.20;99.90;;;;;;4211039;28;20072;-83
2023/07/03 09:05:26;;;;;;;4.07;1.10;;;19.20;99.90;;;;;;4211366;28;20510;-84
2023/07/03 09:07:34;;;;;;;8.25;0.93;;;19.20;99.90;;;;;;4201061;28;20047;-83
2023/07/03 09:09:44;;;;;;;5.17;0.83;;;19.00;99.90;;;;;;4200704;28;20048;-82
2023/07/03 09:11:53;;;;;;;5.35;0.80;;;18.90;99.90;;;;;;4202630;28;20290;-82
2023/07/03 09:13:57;;;;;;;4.07;0.88;;;18.60;99.90;;;;;;4201751;28;20148;-83
2023/07/03 09:16:03;;;;;;;5.75;1.05;;;18.30;99.90;;;;;;4200817;28;20557;-81
2023/07/03 09:18:12;;;;;;;3.90;0.70;;;18.10;99.90;;;;;;4200752;28;20121;-82
2023/07/03 09:20:15;;;;;;;3.63;0.67;;;18.10;99.90;;;;;;4201040;28;20076;-83
2023/07/03 09:22:49;;;;;;;5.35;0.85;;;18.00;99.90;;;;;;4200698;28;20291;-83
2023/07/03 09:24:51;;;;;;;6.82;0.70;;;18.00;99.90;;;;;;4179772;28;20060;-88
2023/07/03 09:27:13;;;;;;;5.63;0.80;;;18.20;99.90;;;;;;4220556;28;20036;-88
2023/07/03 09:29:24;;;;;;;3.97;0.85;;;18.30;99.90;;;;;;4218267;28;20040;-88
2023/07/03 09:31:28;;;;;;;3.17;0.82;;;18.40;99.90;;;;;;4206192;28;20187;-90
2023/07/03 09:33:30;;;;;;;2.75;0.65;;;18.30;99.90;;;;;;4221706;28;20052;-88
2023/07/03 09:35:42;;;;;;;4.22;1.00;;;18.20;99.90;;;;;;4220813;28;20098;-89
2023/07/03 09:37:59;;;;;;;8.77;0.95;;;18.30;99.90;;;;;;4219866;28;20055;-89
2023/07/03 09:40:00;;;;;;;5.40;1.25;;;18.30;99.90;;;;;;4217459;28;20080;-88
2023/07/03 09:42:06;;;;;;;5.30;0.90;;;18.70;99.90;;;;;;4219609;28;20082;-89
2023/07/03 09:44:15;;;;;;;5.90;1.02;;;18.90;99.90;;;;;;4218117;28;20055;-89
2023/07/03 09:46:17;;;;;;;3.50;0.90;;;18.90;99.90;;;;;;4217214;28;20131;-89
2023/07/03 09:48:29;;;;;;;5.85;0.82;;;18.70;99.90;;;;;;4220685;28;20482;-89
2023/07/03 09:50:36;;;;;;;4.70;0.80;;;18.50;99.90;;;;;;4225897;28;20052;-89
2023/07/03 09:52:55;;;;;;;10.82;0.90;;;18.40;99.90;;;;;;4225191;28;20040;-88
2023/07/03 09:55:02;;;;;;;6.78;1.08;;;18.30;99.90;;;;;;4229887;28;20048;-88
2023/07/03 09:57:05;;;;;;;8.05;1.20;;;18.20;99.90;;;;;;4236931;28;20044;-88
2023/07/03 09:59:06;;;;;;;2.80;0.60;;;18.10;99.90;;;;;;4242374;28;20050;-89
2023/07/03 10:01:16;;;;;;;3.50;0.93;;;18.10;99.90;;;;;;4244054;28;20020;-87
2023/07/03 10:03:28;;;;;;;3.97;1.10;;;18.10;99.90;;;;;;4224533;28;20047;-89
2023/07/03 10:05:32;;;;;;;4.60;1.10;;;18.00;99.90;;;;;;4221692;28;20160;-88
2023/07/03 10:07:43;;;;;;;3.35;0.57;;;18.00;99.90;;;;;;4220249;28;20048;-88
2023/07/03 10:09:48;;;;;;;5.35;0.57;;;17.90;99.90;;;;;;4217998;28;20412;-89
2023/07/03 10:12:19;;;;;;;2.88;0.70;;;17.80;99.90;;;;;;4218636;28;20040;-89
2023/07/03 10:14:28;;;;;;;4.90;0.77;;;17.70;99.90;;;;;;4223263;28;20054;-88
2023/07/03 10:16:39;;;;;;;2.75;0.70;;;17.60;99.90;;;;;;4221998;28;20048;-88
2023/07/03 10:18:58;;;;;;;3.70;0.55;;;17.60;99.90;;;;;;4242611;28;20059;-88
2023/07/03 10:21:03;;;;;;;5.72;0.60;;;17.60;99.90;;;;;;4225348;28;20436;-89
2023/07/03 10:23:07;;;;;;;5.70;0.98;;;17.50;99.90;;;;;;4239579;28;20118;-88
2023/07/03 10:25:17;;;;;;;6.47;1.33;;;17.40;99.90;;;;;;4241118;28;20043;-88
2023/07/03 10:27:42;;;;;;;2.55;0.82;;;17.30;99.90;;;;;;4243732;28;20061;-88
2023/07/03 10:30:11;;;;;;;1.63;0.70;;;17.20;99.90;;;;;;4246154;28;20099;-89
2023/07/03 10:32:35;;;;;;;2.33;0.63;;;17.10;99.90;;;;;;4249143;28;20051;-89
2023/07/03 10:35:05;;;;;;;3.22;0.60;;;17.00;99.90;;;;;;4250813;28;20032;-90
2023/07/03 10:37:14;;;;;;;3.60;1.05;;;17.20;99.90;;;;;;4229585;28;20047;-90
2023/07/03 10:39:33;;;;;;;4.28;1.10;;;17.10;99.90;;;;;;4242414;28;20035;-88
2023/07/03 10:41:45;;;;;;;2.72;0.50;;;17.50;99.90;;;;;;4228470;28;20050;-89
2023/07/03 10:44:15;;;;;;;4.47;0.77;;;17.70;99.90;;;;;;4232228;28;20095;-88